Time;durP1;ratioP1;P1;durP2;ratioP2;P2;SDS_P1;SDS_P2;PMS_P1;PMS_P2;Temp;Humidity;BMP_temperature;BMP_pressure;BME280_temperature;BME280_humidity;BME280_pressure;Samples;Min_cycle;Max_cycle;Signal;HPM_P1;HPM_P2
2023/04/30 00:00:43;;;;;;;;;26.33;24.67;;;;;-147.47;100.00;64613.53;5081213;28;45369;-80
2023/04/30 00:03:09;;;;;;;;;24.00;21.00;;;;;-147.47;100.00;64613.53;5049981;28;45279;-81
2023/04/30 00:05:34;;;;;;;;;24.67;20.33;;;;;-147.47;100.00;64613.53;5064171;28;45382;-80
2023/04/30 00:07:59;;;;;;;;;26.67;23.33;;;;;-147.47;100.00;64613.53;5059721;28;45475;-81
2023/04/30 00:10:25;;;;;;;;;23.67;23.33;;;;;-147.47;100.00;64613.53;5070005;28;45711;-82
2023/04/30 00:12:50;;;;;;;;;30.00;26.33;;;;;-147.47;100.00;64613.53;5059521;28;44978;-82
2023/04/30 00:15:16;;;;;;;;;34.67;29.00;;;;;-147.47;100.00;64613.53;5060145;28;46143;-82
2023/04/30 00:17:41;;;;;;;;;25.00;21.00;;;;;-147.47;100.00;64613.53;5050016;28;45411;-82
2023/04/30 00:20:07;;;;;;;;;25.33;22.00;;;;;-147.47;100.00;64613.53;5066902;28;45860;-84
2023/04/30 00:22:32;;;;;;;;;25.00;24.67;;;;;-147.47;100.00;64613.53;5055360;28;45943;-80
2023/04/30 00:24:58;;;;;;;;;26.67;23.33;;;;;-147.47;100.00;64613.53;5052772;28;45547;-81
2023/04/30 00:27:24;;;;;;;;;30.00;25.33;;;;;-147.47;100.00;64613.53;5054102;28;45414;-81
2023/04/30 00:29:49;;;;;;;;;25.67;24.00;;;;;-147.47;100.00;64613.53;5042773;28;45475;-81
2023/04/30 00:32:15;;;;;;;;;35.67;30.00;;;;;-147.47;100.00;64613.53;5049954;28;47418;-83
2023/04/30 00:34:40;;;;;;;;;30.33;28.00;;;;;-147.47;100.00;64613.53;5044277;28;45523;-82
2023/04/30 00:37:05;;;;;;;;;35.67;28.67;;;;;-147.47;100.00;64613.53;5011720;28;45369;-79
2023/04/30 00:39:31;;;;;;;;;25.00;22.67;;;;;-147.47;100.00;64613.53;5069350;28;45338;-81
2023/04/30 00:41:56;;;;;;;;;34.00;24.33;;;;;-147.47;100.00;64613.53;5064647;28;45426;-81
2023/04/30 00:44:22;;;;;;;;;30.00;26.00;;;;;-147.47;100.00;64613.53;5070620;28;45204;-80
2023/04/30 00:46:47;;;;;;;;;33.33;27.00;;;;;-147.47;100.00;64613.53;5059933;28;45171;-82
2023/04/30 00:49:12;;;;;;;;;30.00;24.00;;;;;-147.47;100.00;64613.53;5050068;28;45275;-81
2023/04/30 00:51:40;;;;;;;;;21.67;17.33;;;;;-147.47;100.00;64613.53;5064783;28;45712;-80
2023/04/30 00:54:06;;;;;;;;;23.67;20.67;;;;;-147.47;100.00;64613.53;5046793;28;47055;-81
2023/04/30 00:56:32;;;;;;;;;30.67;28.00;;;;;-147.47;100.00;64613.53;5054659;28;45441;-81
2023/04/30 00:58:58;;;;;;;;;30.00;28.00;;;;;-147.47;100.00;64613.53;5053533;28;45441;-82
2023/04/30 01:01:30;;;;;;;;;20.00;16.67;;;;;-147.47;100.00;64613.53;5050365;28;45496;-81
2023/04/30 01:03:56;;;;;;;;;33.67;25.33;;;;;-147.47;100.00;64613.53;5045337;28;47150;-81
2023/04/30 01:06:21;;;;;;;;;23.00;18.33;;;;;-147.47;100.00;64613.53;5028394;28;45478;-82
2023/04/30 01:08:48;;;;;;;;;28.67;22.67;;;;;-147.47;100.00;64613.53;5072889;28;45394;-81
2023/04/30 01:11:44;;;;;;;;;28.67;22.67;;;;;-147.47;100.00;64613.53;5041494;28;45488;-82
2023/04/30 01:14:15;;;;;;;;;25.00;22.00;;;;;-147.47;100.00;64613.53;5042229;28;46882;-83
2023/04/30 01:16:59;;;;;;;;;26.67;23.00;;;;;-147.47;100.00;64613.53;5059590;28;45340;-81
2023/04/30 01:19:39;;;;;;;;;30.00;22.33;;;;;-147.47;100.00;64613.53;5053164;28;45380;-83
2023/04/30 01:22:10;;;;;;;;;23.00;20.33;;;;;-147.47;100.00;64613.53;5044693;28;45986;-80
2023/04/30 01:24:56;;;;;;;;;24.33;23.00;;;;;-147.47;100.00;64613.53;5055270;28;46713;-81
2023/04/30 01:28:13;;;;;;;;;29.33;24.67;;;;;-147.47;100.00;64613.53;5063302;28;45340;-81
2023/04/30 01:30:40;;;;;;;;;29.33;27.33;;;;;-147.47;100.00;64613.53;5029138;28;45846;-81
2023/04/30 01:33:06;;;;;;;;;26.00;24.00;;;;;-147.47;100.00;64613.53;5058258;28;45560;-83
2023/04/30 01:35:49;;;;;;;;;32.00;29.00;;;;;-147.47;100.00;64613.53;5061013;28;45513;-80
2023/04/30 01:38:30;;;;;;;;;26.00;22.67;;;;;-147.47;100.00;64613.53;5042800;28;44888;-82
2023/04/30 01:40:58;;;;;;;;;25.33;23.00;;;;;-147.47;100.00;64613.53;5061387;28;45459;-82
2023/04/30 01:43:43;;;;;;;;;26.67;22.00;;;;;-147.47;100.00;64613.53;5060563;28;45819;-81
2023/04/30 01:46:24;;;;;;;;;23.67;21.33;;;;;-147.47;100.00;64613.53;5058714;28;45539;-81
2023/04/30 01:48:59;;;;;;;;;24.00;19.33;;;;;-147.47;100.00;64613.53;5044582;28;45348;-81
2023/04/30 01:51:41;;;;;;;;;27.33;23.67;;;;;-147.47;100.00;64613.53;5060671;28;45473;-81
2023/04/30 01:54:27;;;;;;;;;22.00;21.33;;;;;-147.47;100.00;64613.53;5052999;28;45639;-80
2023/04/30 01:57:03;;;;;;;;;30.00;22.67;;;;;-147.47;100.00;64613.53;5062076;28;46425;-81
2023/04/30 01:59:32;;;;;;;;;29.33;22.67;;;;;-147.47;100.00;64613.53;5055161;28;45810;-81
2023/04/30 02:01:57;;;;;;;;;19.33;18.67;;;;;-147.47;100.00;64613.53;5063527;28;45794;-81
2023/04/30 02:04:22;;;;;;;;;29.00;25.67;;;;;-147.47;100.00;64613.53;5061671;28;45504;-81
2023/04/30 02:06:48;;;;;;;;;24.00;18.00;;;;;-147.47;100.00;64613.53;5062466;28;45433;-81
2023/04/30 02:09:13;;;;;;;;;32.00;22.00;;;;;-147.47;100.00;64613.53;5061285;28;45384;-81
2023/04/30 02:11:39;;;;;;;;;30.00;25.67;;;;;-147.47;100.00;64613.53;5064314;28;45414;-80
2023/04/30 02:14:05;;;;;;;;;26.33;20.67;;;;;-147.47;100.00;64613.53;5064265;28;44850;-82
2023/04/30 02:16:31;;;;;;;;;26.00;21.00;;;;;-147.47;100.00;64613.53;5068040;28;45239;-80
2023/04/30 02:18:56;;;;;;;;;26.67;22.00;;;;;-147.47;100.00;64613.53;5046830;28;45629;-83
2023/04/30 02:21:21;;;;;;;;;23.33;21.33;;;;;-147.47;100.00;64613.53;5042382;28;45456;-82
2023/04/30 02:23:47;;;;;;;;;23.33;21.33;;;;;-147.47;100.00;64613.53;5070704;28;45442;-81
2023/04/30 02:26:12;;;;;;;;;28.67;24.00;;;;;-147.47;100.00;64613.53;5059121;28;45743;-80
2023/04/30 02:28:38;;;;;;;;;26.00;22.67;;;;;-147.47;100.00;64613.53;5050340;28;46228;-81
2023/04/30 02:31:03;;;;;;;;;28.00;23.00;;;;;-147.47;100.00;64613.53;5072688;28;45414;-81
2023/04/30 02:33:29;;;;;;;;;22.67;19.00;;;;;-147.47;100.00;64613.53;5061434;28;45786;-79
2023/04/30 02:35:55;;;;;;;;;24.33;19.67;;;;;-147.47;100.00;64613.53;5058283;28;45672;-79
2023/04/30 02:38:20;;;;;;;;;30.00;22.00;;;;;-147.47;100.00;64613.53;5084070;28;45393;-80
2023/04/30 02:40:45;;;;;;;;;34.00;23.00;;;;;-147.47;100.00;64613.53;5067716;28;45469;-81
2023/04/30 02:43:11;;;;;;;;;26.33;25.00;;;;;-147.47;100.00;64613.53;5078318;28;45804;-81
2023/04/30 02:45:36;;;;;;;;;29.67;24.00;;;;;-147.47;100.00;64613.53;5066142;28;45433;-83
2023/04/30 02:48:02;;;;;;;;;27.33;22.67;;;;;-147.47;100.00;64613.53;5070566;28;45435;-81
2023/04/30 02:50:27;;;;;;;;;25.33;20.67;;;;;-147.47;100.00;64613.53;5063085;28;45453;-81
2023/04/30 02:52:54;;;;;;;;;25.33;23.33;;;;;-147.47;100.00;64613.53;5045773;28;47588;-82
2023/04/30 02:55:24;;;;;;;;;28.00;22.33;;;;;-147.47;100.00;64613.53;5062361;28;45900;-81
2023/04/30 02:57:50;;;;;;;;;26.67;23.67;;;;;-147.47;100.00;64613.53;5053849;28;45396;-81
2023/04/30 03:00:16;;;;;;;;;30.67;24.33;;;;;-147.47;100.00;64613.53;5044978;28;45313;-80
2023/04/30 03:02:41;;;;;;;;;29.00;25.00;;;;;-147.47;100.00;64613.53;5059098;28;46390;-82
2023/04/30 03:05:07;;;;;;;;;29.33;22.67;;;;;-147.47;100.00;64613.53;5064252;28;45453;-82
2023/04/30 03:07:32;;;;;;;;;24.00;22.00;;;;;-147.47;100.00;64613.53;5055237;28;45498;-81
2023/04/30 03:09:58;;;;;;;;;29.00;27.33;;;;;-147.47;100.00;64613.53;5068664;28;45678;-80
2023/04/30 03:12:23;;;;;;;;;33.33;27.33;;;;;-147.47;100.00;64613.53;5045825;28;45490;-79
2023/04/30 03:14:49;;;;;;;;;26.33;23.00;;;;;-147.47;100.00;64613.53;5061621;28;45327;-82
2023/04/30 03:17:15;;;;;;;;;35.00;28.33;;;;;-147.47;100.00;64613.53;5062494;28;45524;-81
2023/04/30 03:19:40;;;;;;;;;20.33;20.00;;;;;-147.47;100.00;64613.53;5053783;28;45337;-80
2023/04/30 03:22:06;;;;;;;;;31.33;28.67;;;;;-147.47;100.00;64613.53;5046309;28;45451;-80
2023/04/30 03:24:31;;;;;;;;;24.67;23.33;;;;;-147.47;100.00;64613.53;5056119;28;46654;-80
2023/04/30 03:26:57;;;;;;;;;29.00;25.67;;;;;-147.47;100.00;64613.53;5062921;28;45079;-80
2023/04/30 03:29:22;;;;;;;;;24.67;20.67;;;;;-147.47;100.00;64613.53;5050770;28;45397;-81
2023/04/30 03:31:48;;;;;;;;;29.67;24.00;;;;;-147.47;100.00;64613.53;5063171;28;45379;-80
2023/04/30 03:34:13;;;;;;;;;32.00;28.67;;;;;-147.47;100.00;64613.53;5068980;28;45279;-80
2023/04/30 03:36:39;;;;;;;;;31.33;26.67;;;;;-147.47;100.00;64613.53;5050182;28;45558;-83
2023/04/30 03:39:05;;;;;;;;;33.00;28.33;;;;;-147.47;100.00;64613.53;5061197;28;45178;-82
2023/04/30 03:41:31;;;;;;;;;33.33;26.67;;;;;-147.47;100.00;64613.53;5031463;28;46225;-83
2023/04/30 03:43:56;;;;;;;;;31.67;27.00;;;;;-147.47;100.00;64613.53;5067337;28;45931;-84
2023/04/30 03:46:22;;;;;;;;;26.33;23.67;;;;;-147.47;100.00;64613.53;5081204;28;45777;-80
2023/04/30 03:48:47;;;;;;;;;27.33;24.67;;;;;-147.47;100.00;64613.53;5065726;28;45494;-83
2023/04/30 03:51:13;;;;;;;;;29.67;27.00;;;;;-147.47;100.00;64613.53;5044950;28;45457;-83
2023/04/30 03:53:39;;;;;;;;;35.33;31.00;;;;;-147.47;100.00;64613.53;5065439;28;45598;-82
2023/04/30 03:56:05;;;;;;;;;33.00;26.33;;;;;-147.47;100.00;64613.53;5057359;28;45422;-83
2023/04/30 03:58:44;;;;;;;;;;;;;;;;;;;;;
2023/04/30 04:01:14;;;;;;;;;38.33;30.00;;;;;-147.47;100.00;64613.53;5078010;28;73181;-83
2023/04/30 04:03:40;;;;;;;;;29.67;26.33;;;;;-147.47;100.00;64613.53;5074588;28;45825;-83
2023/04/30 04:06:14;;;;;;;;;31.67;29.00;;;;;-147.47;100.00;64613.53;5072230;28;45593;-84
2023/04/30 04:08:43;;;;;;;;;36.00;27.00;;;;;-147.47;100.00;64613.53;5055174;28;45512;-80
2023/04/30 04:11:15;;;;;;;;;37.00;31.67;;;;;-147.47;100.00;64613.53;5075012;28;45313;-79
2023/04/30 04:13:41;;;;;;;;;35.67;31.33;;;;;-147.47;100.00;64613.53;5055925;28;46690;-82
2023/04/30 04:16:08;;;;;;;;;39.33;33.00;;;;;-147.47;100.00;64613.53;5064068;28;44890;-81
2023/04/30 04:18:35;;;;;;;;;45.00;35.33;;;;;-147.47;100.00;64613.53;5076361;28;45439;-83
2023/04/30 04:21:30;;;;;;;;;37.00;31.00;;;;;-147.47;100.00;64613.53;5065805;28;44847;-83
2023/04/30 04:24:07;;;;;;;;;38.67;33.67;;;;;-147.47;100.00;64613.53;5045237;28;46129;-84
2023/04/30 04:26:45;;;;;;;;;34.67;31.33;;;;;-147.47;100.00;64613.53;5067879;28;45818;-83
2023/04/30 04:29:26;;;;;;;;;39.33;32.33;;;;;-147.47;100.00;64613.53;5067749;28;45865;-82
2023/04/30 04:31:54;;;;;;;;;45.00;33.67;;;;;-147.47;100.00;64613.53;5040516;28;45426;-82
2023/04/30 04:34:19;;;;;;;;;47.00;36.67;;;;;-147.47;100.00;64613.53;5071936;28;45664;-83
2023/04/30 04:36:45;;;;;;;;;43.00;36.00;;;;;-147.47;100.00;64613.53;5066882;28;45419;-85
2023/04/30 04:39:12;;;;;;;;;42.33;34.00;;;;;-147.47;100.00;64613.53;5070675;28;45711;-84
2023/04/30 04:41:38;;;;;;;;;38.33;34.00;;;;;-147.47;100.00;64613.53;5035027;28;45375;-84
2023/04/30 04:44:05;;;;;;;;;38.33;30.67;;;;;-147.47;100.00;64613.53;5060989;28;45482;-85
2023/04/30 04:46:31;;;;;;;;;45.33;36.33;;;;;-147.47;100.00;64613.53;5061139;28;44737;-84
2023/04/30 04:49:00;;;;;;;;;40.33;31.67;;;;;-147.47;100.00;64613.53;5056719;28;45900;-86
2023/04/30 04:51:25;;;;;;;;;45.33;34.33;;;;;-147.47;100.00;64613.53;5062502;28;45419;-86
2023/04/30 04:53:53;;;;;;;;;47.33;36.33;;;;;-147.47;100.00;64613.53;5060323;28;45354;-85
2023/04/30 04:56:19;;;;;;;;;44.33;34.67;;;;;-147.47;100.00;64613.53;5062252;28;45383;-85
2023/04/30 04:58:46;;;;;;;;;50.75;36.00;;;;;-147.47;100.00;64613.53;5062142;28;45344;-84
2023/04/30 05:01:12;;;;;;;;;42.00;34.67;;;;;-147.47;100.00;64613.53;5069224;28;45513;-84
2023/04/30 05:03:38;;;;;;;;;47.33;34.00;;;;;-147.47;100.00;64613.53;5052834;28;47031;-85
2023/04/30 05:06:05;;;;;;;;;39.33;31.33;;;;;-147.47;100.00;64613.53;5050877;28;45541;-87
2023/04/30 05:08:31;;;;;;;;;46.00;35.00;;;;;-147.47;100.00;64613.53;5065576;28;45442;-84
2023/04/30 05:10:59;;;;;;;;;45.33;32.00;;;;;-147.47;100.00;64613.53;5065624;28;45025;-82
2023/04/30 05:13:25;;;;;;;;;48.67;34.67;;;;;-147.47;100.00;64613.53;5054771;28;48063;-84
2023/04/30 05:15:51;;;;;;;;;47.67;35.00;;;;;-147.47;100.00;64613.53;5062346;28;45446;-83
2023/04/30 05:18:17;;;;;;;;;46.00;36.00;;;;;-147.47;100.00;64613.53;5061156;28;45503;-82
2023/04/30 05:20:43;;;;;;;;;46.00;34.00;;;;;-147.47;100.00;64613.53;5064036;28;45480;-83
2023/04/30 05:23:09;;;;;;;;;44.67;35.67;;;;;-147.47;100.00;64613.53;5070995;28;45333;-83
2023/04/30 05:25:35;;;;;;;;;43.67;34.67;;;;;-147.47;100.00;64613.53;5051886;28;45494;-83
2023/04/30 05:28:01;;;;;;;;;49.33;38.67;;;;;-147.47;100.00;64613.53;5047259;28;45792;-83
2023/04/30 05:30:26;;;;;;;;;43.67;33.00;;;;;-147.47;100.00;64613.53;5056682;28;45384;-82
2023/04/30 05:32:52;;;;;;;;;48.67;36.33;;;;;-147.47;100.00;64613.53;5072296;28;46128;-83
2023/04/30 05:35:18;;;;;;;;;45.00;32.67;;;;;-147.47;100.00;64613.53;5066288;28;45446;-79
2023/04/30 05:37:44;;;;;;;;;44.33;34.67;;;;;-147.47;100.00;64613.53;5065220;28;45371;-76
2023/04/30 05:40:11;;;;;;;;;45.67;35.67;;;;;-147.47;100.00;64613.53;5049820;28;45707;-76
2023/04/30 05:42:37;;;;;;;;;44.67;34.33;;;;;-147.47;100.00;64613.53;5041480;28;46696;-77
2023/04/30 05:45:03;;;;;;;;;41.67;34.00;;;;;-147.47;100.00;64613.53;5056566;28;44795;-74
2023/04/30 05:47:28;;;;;;;;;47.33;37.00;;;;;-147.47;100.00;64613.53;5054891;28;45847;-77
2023/04/30 05:49:54;;;;;;;;;45.33;35.67;;;;;-147.47;100.00;64613.53;5084604;28;45759;-75
2023/04/30 05:52:19;;;;;;;;;42.00;35.00;;;;;-147.47;100.00;64613.53;5072691;28;46275;-75
2023/04/30 05:54:46;;;;;;;;;47.33;34.33;;;;;-147.47;100.00;64613.53;5056807;28;45812;-77
2023/04/30 05:57:13;;;;;;;;;48.00;37.67;;;;;-147.47;100.00;64613.53;5069869;28;45449;-76
2023/04/30 05:59:39;;;;;;;;;46.33;38.00;;;;;-147.47;100.00;64613.53;5060104;28;44883;-77
2023/04/30 06:02:05;;;;;;;;;36.00;32.67;;;;;-147.47;100.00;64613.53;5066267;28;45545;-75
2023/04/30 06:04:31;;;;;;;;;43.67;35.33;;;;;-147.47;100.00;64613.53;5060278;28;45454;-75
2023/04/30 06:06:56;;;;;;;;;46.67;37.00;;;;;-147.47;100.00;64613.53;5076117;28;45402;-76
2023/04/30 06:09:22;;;;;;;;;49.67;38.00;;;;;-147.47;100.00;64613.53;5079997;28;45496;-75
2023/04/30 06:11:50;;;;;;;;;47.67;38.33;;;;;-147.47;100.00;64613.53;5049985;28;45631;-75
2023/04/30 06:14:17;;;;;;;;;40.33;36.33;;;;;-147.47;100.00;64613.53;5049733;28;45412;-77
2023/04/30 06:16:44;;;;;;;;;42.67;35.67;;;;;-147.47;100.00;64613.53;5068533;28;45391;-78
2023/04/30 06:19:09;;;;;;;;;52.33;40.00;;;;;-147.47;100.00;64613.53;5072140;28;45387;-78
2023/04/30 06:21:35;;;;;;;;;57.00;41.00;;;;;-147.47;100.00;64613.53;5054785;28;47710;-77
2023/04/30 06:24:00;;;;;;;;;44.00;36.67;;;;;-147.47;100.00;64613.53;5037272;28;45398;-76
2023/04/30 06:26:26;;;;;;;;;53.33;40.67;;;;;-147.47;100.00;64613.53;5062321;28;45542;-77
2023/04/30 06:28:52;;;;;;;;;35.00;31.00;;;;;-147.47;100.00;64613.53;5069483;28;46245;-77
2023/04/30 06:31:17;;;;;;;;;43.67;32.33;;;;;-147.47;100.00;64613.53;5036629;28;47964;-77
2023/04/30 06:33:43;;;;;;;;;40.33;34.33;;;;;-147.47;100.00;64613.53;5050741;28;45370;-75
2023/04/30 06:36:08;;;;;;;;;37.67;33.67;;;;;-147.47;100.00;64613.53;5037193;28;45806;-76
2023/04/30 06:38:33;;;;;;;;;37.33;35.00;;;;;-147.47;100.00;64613.53;5054676;28;47165;-74
2023/04/30 06:40:59;;;;;;;;;41.67;34.33;;;;;-147.47;100.00;64613.53;5047066;28;45764;-75
2023/04/30 06:43:24;;;;;;;;;41.33;34.33;;;;;-147.47;100.00;64613.53;5050371;28;45500;-75
2023/04/30 06:45:50;;;;;;;;;42.00;34.00;;;;;-147.47;100.00;64613.53;5054504;28;45510;-77
2023/04/30 06:48:15;;;;;;;;;43.67;34.00;;;;;-147.47;100.00;64613.53;5054897;28;45777;-75
2023/04/30 06:50:44;;;;;;;;;40.00;33.33;;;;;-147.47;100.00;64613.53;5055492;28;45689;-79
2023/04/30 06:53:13;;;;;;;;;42.67;34.00;;;;;-147.47;100.00;64613.53;5042848;28;45592;-78
2023/04/30 06:55:40;;;;;;;;;37.33;33.00;;;;;-147.47;100.00;64613.53;5040301;28;45887;-77
2023/04/30 06:58:06;;;;;;;;;40.00;34.00;;;;;-147.47;100.00;64613.53;5051971;28;45637;-75
2023/04/30 07:00:33;;;;;;;;;34.00;31.00;;;;;-147.47;100.00;64613.53;5054872;28;45779;-76
2023/04/30 07:03:03;;;;;;;;;41.67;34.67;;;;;-147.47;100.00;64613.53;5051294;28;45689;-75
2023/04/30 07:05:29;;;;;;;;;46.67;34.33;;;;;-147.47;100.00;64613.53;5054834;28;45370;-78
2023/04/30 07:07:55;;;;;;;;;37.00;30.00;;;;;-147.47;100.00;64613.53;5052722;28;45843;-77
2023/04/30 07:10:21;;;;;;;;;47.33;34.67;;;;;-147.47;100.00;64613.53;5048098;28;45879;-73
2023/04/30 07:12:46;;;;;;;;;41.33;32.67;;;;;-147.47;100.00;64613.53;5046975;28;45421;-77
2023/04/30 07:15:11;;;;;;;;;38.33;28.00;;;;;-147.47;100.00;64613.53;5046638;28;45687;-76
2023/04/30 07:17:37;;;;;;;;;76.75;55.50;;;;;-147.47;100.00;64613.53;5048744;28;45678;-76
2023/04/30 07:20:04;;;;;;;;;43.33;34.67;;;;;-147.47;100.00;64613.53;5049125;28;45667;-76
2023/04/30 07:22:32;;;;;;;;;40.67;29.00;;;;;-147.47;100.00;64613.53;5048781;28;45406;-76
2023/04/30 07:24:57;;;;;;;;;36.67;32.33;;;;;-147.47;100.00;64613.53;5055926;28;45569;-78
2023/04/30 07:27:24;;;;;;;;;39.67;31.00;;;;;-147.47;100.00;64613.53;5057514;28;46071;-77
2023/04/30 07:29:50;;;;;;;;;40.67;32.00;;;;;-147.47;100.00;64613.53;5046648;28;46145;-78
2023/04/30 07:32:15;;;;;;;;;40.67;31.67;;;;;-147.47;100.00;64613.53;5032551;28;46175;-78
2023/04/30 07:34:41;;;;;;;;;28.67;28.67;;;;;-147.47;100.00;64613.53;5052988;28;45615;-76
2023/04/30 07:37:10;;;;;;;;;33.33;25.00;;;;;-147.47;100.00;64613.53;5033371;28;45792;-78
2023/04/30 07:39:36;;;;;;;;;39.00;32.00;;;;;-147.47;100.00;64613.53;5047709;28;45577;-78
2023/04/30 07:42:02;;;;;;;;;40.67;34.33;;;;;-147.47;100.00;64613.53;5048425;28;45615;-78
2023/04/30 07:44:28;;;;;;;;;36.67;31.33;;;;;-147.47;100.00;64613.53;5035687;28;45708;-77
2023/04/30 07:46:54;;;;;;;;;32.67;30.00;;;;;-147.47;100.00;64613.53;5050039;28;45490;-79
2023/04/30 07:49:19;;;;;;;;;40.33;31.67;;;;;-147.47;100.00;64613.53;5058449;28;45476;-79
2023/04/30 07:51:45;;;;;;;;;27.00;26.33;;;;;-147.47;100.00;64613.53;5055849;28;45607;-77
2023/04/30 07:54:11;;;;;;;;;37.00;32.00;;;;;-147.47;100.00;64613.53;5047535;28;45558;-79
2023/04/30 07:56:39;;;;;;;;;32.67;26.67;;;;;-147.47;100.00;64613.53;5054081;28;45926;-80
2023/04/30 07:59:05;;;;;;;;;32.67;27.67;;;;;-147.47;100.00;64613.53;5037172;28;47571;-79
2023/04/30 08:01:31;;;;;;;;;28.67;24.00;;;;;-147.47;100.00;64613.53;5051227;28;45150;-78
2023/04/30 08:03:56;;;;;;;;;30.00;26.33;;;;;-147.47;100.00;64613.53;5035687;28;45531;-77
2023/04/30 08:06:22;;;;;;;;;33.33;31.67;;;;;-147.47;100.00;64613.53;5055420;28;46748;-79
2023/04/30 08:08:48;;;;;;;;;35.67;30.00;;;;;-147.47;100.00;64613.53;5052363;28;45908;-78
2023/04/30 08:11:14;;;;;;;;;30.67;27.00;;;;;-147.47;100.00;64613.53;5044784;28;45493;-77
2023/04/30 08:13:42;;;;;;;;;25.67;22.67;;;;;-147.47;100.00;64613.53;5049996;28;45823;-78
2023/04/30 08:16:08;;;;;;;;;34.67;31.00;;;;;-147.47;100.00;64613.53;5055511;28;46024;-77
2023/04/30 08:18:34;;;;;;;;;25.33;23.33;;;;;-147.47;100.00;64613.53;5037237;28;46194;-77
2023/04/30 08:21:00;;;;;;;;;31.67;28.00;;;;;-147.47;100.00;64613.53;5054305;28;46153;-77
2023/04/30 08:23:26;;;;;;;;;30.00;28.67;;;;;-147.47;100.00;64613.53;5037635;28;45762;-77
2023/04/30 08:25:55;;;;;;;;;38.33;29.33;;;;;-147.47;100.00;64613.53;5051854;28;45872;-81
2023/04/30 08:28:20;;;;;;;;;30.00;28.00;;;;;-147.47;100.00;64613.53;5051309;28;46298;-78
2023/04/30 08:30:46;;;;;;;;;32.67;29.67;;;;;-147.47;100.00;64613.53;5026201;28;45895;-79
2023/04/30 08:33:11;;;;;;;;;29.00;26.00;;;;;-147.47;100.00;64613.53;5047903;28;45498;-76
2023/04/30 08:35:38;;;;;;;;;36.00;29.67;;;;;-147.47;100.00;64613.53;5063199;28;45371;-76
2023/04/30 08:38:04;;;;;;;;;31.33;25.00;;;;;-147.47;100.00;64613.53;5044332;28;45557;-77
2023/04/30 08:40:34;;;;;;;;;32.00;28.33;;;;;-147.47;100.00;64613.53;5052081;28;45876;-75
2023/04/30 08:43:07;;;;;;;;;33.67;31.00;;;;;-147.47;100.00;64613.53;5044769;28;45876;-76
2023/04/30 08:45:35;;;;;;;;;33.00;28.67;;;;;-147.47;100.00;64613.53;5055268;28;45494;-76
2023/04/30 08:48:03;;;;;;;;;34.67;29.33;;;;;-147.47;100.00;64613.53;5034216;28;46990;-76
2023/04/30 08:50:29;;;;;;;;;28.67;27.33;;;;;-147.47;100.00;64613.53;5056992;28;45499;-75
2023/04/30 08:52:57;;;;;;;;;36.33;32.33;;;;;-147.47;100.00;64613.53;5051113;28;45807;-74
2023/04/30 08:55:25;;;;;;;;;31.00;26.33;;;;;-147.47;100.00;64613.53;5048235;28;45921;-74
2023/04/30 08:57:53;;;;;;;;;31.33;26.33;;;;;-147.47;100.00;64613.53;5046622;28;46172;-77
2023/04/30 09:00:19;;;;;;;;;27.00;25.00;;;;;-147.47;100.00;64613.53;5046867;28;45549;-75
2023/04/30 09:02:46;;;;;;;;;32.00;30.00;;;;;-147.47;100.00;64613.53;5038897;28;45469;-76
2023/04/30 09:05:14;;;;;;;;;33.00;30.00;;;;;-147.47;100.00;64613.53;5045902;28;46480;-76
2023/04/30 09:07:45;;;;;;;;;26.67;26.67;;;;;-147.47;100.00;64613.53;5057850;28;45871;-79
2023/04/30 09:10:19;;;;;;;;;34.33;28.33;;;;;-147.47;100.00;64613.53;5049064;28;45734;-77
2023/04/30 09:12:58;;;;;;;;;9.67;8.67;;;;;-147.47;100.00;64613.53;5050282;28;45489;-76
2023/04/30 09:15:23;;;;;;;;;25.33;22.67;;;;;-147.47;100.00;64613.53;5056758;28;45785;-76
2023/04/30 09:18:06;;;;;;;;;26.00;22.67;;;;;-147.47;100.00;64613.53;5068726;28;46528;-78
2023/04/30 09:20:31;;;;;;;;;31.33;26.33;;;;;-147.47;100.00;64613.53;5055207;28;45870;-76
2023/04/30 09:23:10;;;;;;;;;23.33;21.67;;;;;-147.47;100.00;64613.53;5058430;28;45599;-77
2023/04/30 09:25:40;;;;;;;;;27.67;23.67;;;;;-147.47;100.00;64613.53;5046360;28;46067;-76
2023/04/30 09:28:13;;;;;;;;;30.33;29.33;;;;;-147.47;100.00;64613.53;5039396;28;46544;-80
2023/04/30 09:30:39;;;;;;;;;24.75;21.50;;;;;-147.47;100.00;64613.53;5038243;28;45329;-79
2023/04/30 09:33:05;;;;;;;;;23.00;19.67;;;;;-147.47;100.00;64613.53;5066065;28;45404;-75
2023/04/30 09:35:40;;;;;;;;;20.67;20.67;;;;;-147.47;100.00;64613.53;5058362;28;45553;-82
2023/04/30 09:38:05;;;;;;;;;18.00;17.33;;;;;-147.47;100.00;64613.53;5033313;28;45783;-76
2023/04/30 09:40:36;;;;;;;;;22.67;21.33;;;;;-147.47;100.00;64613.53;5031803;28;45542;-77
2023/04/30 09:43:05;;;;;;;;;21.67;21.67;;;;;-147.47;100.00;64613.53;5053619;28;45407;-75
2023/04/30 09:45:50;;;;;;;;;22.00;20.67;;;;;-147.47;100.00;64613.53;5051497;28;45967;-75
2023/04/30 09:48:22;;;;;;;;;23.33;19.67;;;;;-147.47;100.00;64613.53;5053288;28;45521;-76
2023/04/30 09:50:49;;;;;;;;;16.25;16.25;;;;;-147.47;100.00;64613.53;5058707;28;45428;-76
2023/04/30 09:53:16;;;;;;;;;26.00;23.00;;;;;-147.47;100.00;64613.53;5055052;28;45579;-77
2023/04/30 09:55:47;;;;;;;;;22.67;19.67;;;;;-147.47;100.00;64613.53;5057049;28;45849;-77
2023/04/30 09:58:13;;;;;;;;;25.33;22.33;;;;;-147.47;100.00;64613.53;5033470;28;46954;-75
2023/04/30 10:00:40;;;;;;;;;24.00;22.00;;;;;-147.47;100.00;64613.53;5039803;28;45783;-78
2023/04/30 10:03:11;;;;;;;;;21.67;19.33;;;;;-147.47;100.00;64613.53;5044907;28;45359;-75
2023/04/30 10:05:47;;;;;;;;;21.67;14.33;;;;;-147.47;100.00;64613.53;5049688;28;45423;-77
2023/04/30 10:08:58;;;;;;;;;23.33;22.67;;;;;-147.47;100.00;64613.53;5029541;28;46655;-77
2023/04/30 10:11:27;;;;;;;;;26.00;23.00;;;;;-147.47;100.00;64613.53;4945001;28;45572;-76
2023/04/30 10:13:58;;;;;;;;;24.00;22.33;;;;;-147.47;100.00;64613.53;4948857;28;45597;-76
2023/04/30 10:16:46;;;;;;;;;24.00;22.33;;;;;-147.47;100.00;64613.53;5003686;28;45560;-76
2023/04/30 10:19:36;;;;;;;;;22.00;20.67;;;;;-147.47;100.00;64613.53;5044536;28;46520;-75
2023/04/30 10:22:02;;;;;;;;;18.00;16.67;;;;;-147.47;100.00;64613.53;5046710;28;45862;-76
2023/04/30 10:24:28;;;;;;;;;17.00;16.00;;;;;-147.47;100.00;64613.53;5044471;28;45469;-77
2023/04/30 10:26:54;;;;;;;;;19.67;18.33;;;;;-147.47;100.00;64613.53;5047796;28;45526;-76
2023/04/30 10:29:19;;;;;;;;;18.75;16.25;;;;;-147.47;100.00;64613.53;5025082;28;47187;-77
2023/04/30 10:31:53;;;;;;;;;21.50;18.75;;;;;-147.47;100.00;64613.53;5038750;28;45769;-79
2023/04/30 10:34:37;;;;;;;;;23.33;23.00;;;;;-147.47;100.00;64613.53;5045204;28;46518;-76
2023/04/30 10:37:10;;;;;;;;;22.00;17.67;;;;;-147.47;100.00;64613.53;5046640;28;45702;-76
2023/04/30 10:39:51;;;;;;;;;15.25;12.50;;;;;-147.47;100.00;64613.53;5039499;28;46149;-86
2023/04/30 10:42:16;;;;;;;;;12.25;12.25;;;;;-147.47;100.00;64613.53;5045202;28;45879;-76
2023/04/30 10:44:42;;;;;;;;;16.50;15.25;;;;;-147.47;100.00;64613.53;5048017;28;45333;-76
2023/04/30 10:47:08;;;;;;;;;15.50;12.25;;;;;-147.47;100.00;64613.53;5042950;28;45455;-76
2023/04/30 10:49:34;;;;;;;;;13.67;11.67;;;;;-147.47;100.00;64613.53;5044497;28;45813;-78
2023/04/30 10:52:02;;;;;;;;;13.50;12.00;;;;;-147.47;100.00;64613.53;5039587;28;45406;-78
2023/04/30 10:54:35;;;;;;;;;14.25;12.00;;;;;-147.47;100.00;64613.53;5053906;28;45530;-77
2023/04/30 10:57:18;;;;;;;;;8.50;8.50;;;;;-147.47;100.00;64613.53;5035569;28;45983;-76
2023/04/30 11:00:10;;;;;;;;;13.50;12.00;;;;;-147.47;100.00;64613.53;5048725;28;45610;-72